Terminal Aerodrome Forecast
Issued by NWS

Home | Current Version | Previous Version | Text Only | Print | Product List | Glossary On
Versions: 1 2 3 4 5 6 7 8 9 10 11 12 13 14 15 16 17
000
FTUS41 KILN 101136
TAFLUK
TAF
KLUK 101136Z 1012/1112 VRB03KT P6SM SCT030 OVC120
     FM101300 25007KT P6SM BKN100
     FM110000 00000KT P6SM BKN080=

USA.gov is the U.S. government's official web portal to all federal, state and local government web resources and services.